Time;durP1;ratioP1;P1;durP2;ratioP2;P2;SDS_P1;SDS_P2;PMS_P1;PMS_P2;Temp;Humidity;BMP_temperature;BMP_pressure;BME280_temperature;BME280_humidity;BME280_pressure;Samples;Min_cycle;Max_cycle;Signal;HPM_P1;HPM_P2
2023/12/01 00:02:03;;;;;;;16.07;10.50;;;-1.90;99.90;;;;;;4932792;29;20217;-67
2023/12/01 00:04:31;;;;;;;13.43;10.03;;;-2.20;99.90;;;;;;4933075;29;20206;-67
2023/12/01 00:06:59;;;;;;;12.80;9.47;;;-2.30;99.90;;;;;;4932714;29;20210;-67
2023/12/01 00:09:28;;;;;;;17.47;10.00;;;-2.40;99.90;;;;;;4932329;29;20210;-65
2023/12/01 00:11:56;;;;;;;13.30;9.40;;;-2.40;99.90;;;;;;4932930;29;20201;-68
2023/12/01 00:14:24;;;;;;;12.63;9.27;;;-2.40;99.90;;;;;;4915069;29;20272;-68
2023/12/01 00:16:53;;;;;;;14.30;10.33;;;-2.40;99.90;;;;;;4932783;29;20206;-63
2023/12/01 00:19:22;;;;;;;13.27;10.00;;;-2.50;99.90;;;;;;4933334;29;20291;-67
2023/12/01 00:21:51;;;;;;;13.73;9.70;;;-2.50;99.90;;;;;;4932762;29;20201;-67
2023/12/01 00:24:19;;;;;;;17.30;10.63;;;-2.50;99.90;;;;;;4932487;29;20689;-68
2023/12/01 00:26:47;;;;;;;14.50;10.07;;;-2.40;99.90;;;;;;4931328;29;20209;-63
2023/12/01 00:29:16;;;;;;;14.47;9.43;;;-2.40;99.90;;;;;;4932093;29;20213;-66
2023/12/01 00:31:44;;;;;;;14.77;10.97;;;-2.60;99.90;;;;;;4932742;29;20205;-64
2023/12/01 00:34:12;;;;;;;14.23;9.93;;;-2.70;99.90;;;;;;4932419;29;20202;-64
2023/12/01 00:36:42;;;;;;;15.17;10.07;;;-2.70;99.90;;;;;;4932683;29;20204;-68
2023/12/01 00:39:10;;;;;;;14.30;9.47;;;-2.80;99.90;;;;;;4932149;29;20316;-67
2023/12/01 00:41:38;;;;;;;14.60;9.67;;;-2.80;99.90;;;;;;4932507;29;20203;-66
2023/12/01 00:44:07;;;;;;;13.77;9.73;;;-2.80;99.90;;;;;;4930806;29;20268;-65
2023/12/01 00:46:35;;;;;;;15.33;10.40;;;-2.70;99.90;;;;;;4931009;29;20205;-67
2023/12/01 00:49:03;;;;;;;13.50;9.67;;;-2.70;99.90;;;;;;4943963;29;20223;-67
2023/12/01 00:51:32;;;;;;;13.00;9.37;;;-2.70;99.90;;;;;;4951531;29;20524;-66
2023/12/01 00:54:01;;;;;;;11.63;8.53;;;-2.70;99.90;;;;;;4951587;29;20792;-66
2023/12/01 00:56:30;;;;;;;14.60;9.77;;;-2.60;99.90;;;;;;4949876;29;20201;-67
2023/12/01 00:58:58;;;;;;;14.43;9.33;;;-2.50;99.90;;;;;;4951082;29;20287;-66
2023/12/01 01:01:26;;;;;;;15.30;8.80;;;-2.50;99.90;;;;;;4951533;29;20244;-67
2023/12/01 01:03:55;;;;;;;13.93;10.03;;;-2.40;99.90;;;;;;4951354;29;21008;-67
2023/12/01 01:06:23;;;;;;;14.57;10.23;;;-2.30;99.90;;;;;;4949619;29;20693;-67
2023/12/01 01:08:51;;;;;;;13.67;10.20;;;-2.00;99.90;;;;;;4951250;29;20193;-67
2023/12/01 01:11:21;;;;;;;13.77;9.70;;;-1.80;99.90;;;;;;4951070;29;20207;-67
2023/12/01 01:13:50;;;;;;;13.00;8.87;;;-1.70;99.90;;;;;;4951131;29;20200;-68
2023/12/01 01:16:18;;;;;;;14.33;9.67;;;-1.70;99.90;;;;;;4951186;29;20196;-66
2023/12/01 01:18:47;;;;;;;13.77;9.33;;;-1.80;99.90;;;;;;4950530;28;20227;-67
2023/12/01 01:21:15;;;;;;;15.00;9.67;;;-1.80;99.90;;;;;;4950234;29;20207;-67
2023/12/01 01:23:44;;;;;;;12.33;9.67;;;-1.80;99.90;;;;;;4951350;29;20797;-65
2023/12/01 01:26:14;;;;;;;12.93;8.47;;;-2.00;99.90;;;;;;4950884;29;20280;-67
2023/12/01 01:28:44;;;;;;;13.63;9.87;;;-2.10;99.90;;;;;;4950745;29;20197;-67
2023/12/01 01:31:12;;;;;;;13.13;9.53;;;-2.10;99.90;;;;;;4950831;29;20271;-66
2023/12/01 01:33:41;;;;;;;13.50;9.23;;;-2.10;99.90;;;;;;4950929;29;20264;-66
2023/12/01 01:36:10;;;;;;;11.00;8.60;;;-2.00;99.90;;;;;;4949023;29;20595;-66
2023/12/01 01:38:40;;;;;;;13.23;9.40;;;-1.90;99.90;;;;;;4949175;29;20236;-64
2023/12/01 01:41:08;;;;;;;12.63;8.43;;;-1.80;99.90;;;;;;4949778;29;20232;-67
2023/12/01 01:43:37;;;;;;;10.63;8.67;;;-1.70;99.90;;;;;;4950722;29;20729;-62
2023/12/01 01:46:08;;;;;;;11.93;8.40;;;-1.60;99.90;;;;;;4949370;29;20250;-66
2023/12/01 01:48:37;;;;;;;10.93;8.27;;;-1.60;99.90;;;;;;4950561;29;20201;-64
2023/12/01 01:51:07;;;;;;;12.07;8.53;;;-1.70;99.90;;;;;;4950710;29;20310;-67
2023/12/01 01:53:36;;;;;;;12.07;9.03;;;-1.90;99.90;;;;;;4950742;29;20216;-67
2023/12/01 01:56:06;;;;;;;12.23;8.07;;;-1.90;99.90;;;;;;4948814;29;20213;-65
2023/12/01 01:58:35;;;;;;;13.57;9.50;;;-1.70;99.90;;;;;;4948990;29;20221;-64
2023/12/01 02:01:03;;;;;;;14.23;8.90;;;-1.70;99.90;;;;;;4949321;29;20216;-67
2023/12/01 02:03:33;;;;;;;12.20;8.73;;;-1.60;99.90;;;;;;4949316;29;20232;-65
2023/12/01 02:06:06;;;;;;;11.60;8.93;;;-1.70;99.90;;;;;;4948927;29;20205;-63
2023/12/01 02:08:35;;;;;;;13.90;9.20;;;-1.90;99.90;;;;;;4949334;29;20215;-66
2023/12/01 02:11:04;;;;;;;13.30;9.53;;;-1.90;99.90;;;;;;4949953;29;20197;-64
2023/12/01 02:13:33;;;;;;;11.70;8.80;;;-1.70;99.90;;;;;;4933360;29;20892;-67
2023/12/01 02:16:01;;;;;;;13.53;9.13;;;-1.50;99.90;;;;;;4949176;29;20668;-64
2023/12/01 02:18:31;;;;;;;11.93;8.77;;;-1.40;99.90;;;;;;4948511;29;20260;-66
2023/12/01 02:21:02;;;;;;;11.10;8.83;;;-1.60;99.90;;;;;;4950511;29;20758;-66
2023/12/01 02:23:32;;;;;;;11.03;8.27;;;-1.60;99.90;;;;;;4933024;29;20295;-63
2023/12/01 02:26:00;;;;;;;13.27;8.60;;;-1.70;99.90;;;;;;4949748;29;20220;-65
2023/12/01 02:28:28;;;;;;;14.03;8.37;;;-1.70;99.90;;;;;;4951014;29;20193;-65
2023/12/01 02:30:57;;;;;;;10.43;8.27;;;-1.60;99.90;;;;;;4954153;28;20208;-62
2023/12/01 02:33:26;;;;;;;11.77;9.03;;;-1.40;99.90;;;;;;4952582;29;20811;-64
2023/12/01 02:35:55;;;;;;;12.63;9.23;;;-1.50;99.90;;;;;;4954002;29;20677;-65
2023/12/01 02:38:23;;;;;;;13.17;9.80;;;-1.60;99.90;;;;;;4954133;29;20289;-64
2023/12/01 02:40:53;;;;;;;12.23;8.77;;;-1.50;99.90;;;;;;4952304;29;20742;-67
2023/12/01 02:43:22;;;;;;;13.37;9.30;;;-1.40;99.90;;;;;;4952880;29;20695;-69
2023/12/01 02:45:51;;;;;;;13.07;9.70;;;-1.30;99.90;;;;;;4954226;29;20668;-67
2023/12/01 02:48:19;;;;;;;13.90;9.97;;;-1.20;99.90;;;;;;4954141;29;20648;-67
2023/12/01 02:50:48;;;;;;;18.87;10.20;;;-1.10;99.90;;;;;;4954359;29;20205;-68
2023/12/01 02:53:17;;;;;;;17.67;11.13;;;-1.20;99.90;;;;;;4952753;29;20211;-66
2023/12/01 02:55:46;;;;;;;14.53;9.10;;;-1.30;99.90;;;;;;4952458;29;20217;-62
2023/12/01 02:58:16;;;;;;;16.23;9.97;;;-1.50;99.90;;;;;;4954073;29;20193;-68
2023/12/01 03:00:45;;;;;;;17.77;11.13;;;-1.40;99.90;;;;;;4953946;29;20233;-66
2023/12/01 03:03:13;;;;;;;15.47;9.57;;;-1.30;99.90;;;;;;4936856;29;20550;-68
2023/12/01 03:05:41;;;;;;;15.10;10.13;;;-1.40;99.90;;;;;;4954033;29;20197;-65
2023/12/01 03:08:09;;;;;;;17.00;11.00;;;-1.30;99.90;;;;;;4954122;29;20201;-68
2023/12/01 03:10:38;;;;;;;17.13;11.17;;;-1.30;99.90;;;;;;4953442;29;20204;-68
2023/12/01 03:13:07;;;;;;;16.57;10.70;;;-1.20;99.90;;;;;;4952461;29;20197;-68
2023/12/01 03:15:36;;;;;;;16.97;10.97;;;-1.10;99.90;;;;;;4953763;29;20616;-67
2023/12/01 03:18:05;;;;;;;18.73;10.70;;;-1.30;99.90;;;;;;4953689;29;20197;-66
2023/12/01 03:20:33;;;;;;;19.20;10.53;;;-1.40;99.90;;;;;;4953742;29;20287;-67
2023/12/01 03:23:01;;;;;;;14.93;9.63;;;-1.40;99.90;;;;;;4953703;29;20197;-64
2023/12/01 03:25:30;;;;;;;17.53;11.20;;;-1.20;99.90;;;;;;4953497;29;20667;-67
2023/12/01 03:27:58;;;;;;;14.47;10.20;;;-1.30;99.90;;;;;;4953489;29;20189;-67
2023/12/01 03:30:27;;;;;;;15.70;9.37;;;-1.20;99.90;;;;;;4953621;29;20203;-67
2023/12/01 03:32:57;;;;;;;15.00;10.53;;;-1.30;99.90;;;;;;4953575;29;20200;-64
2023/12/01 03:35:25;;;;;;;15.57;10.53;;;-1.10;99.90;;;;;;4953302;28;20264;-67
2023/12/01 03:37:56;;;;;;;18.30;11.27;;;-1.00;99.90;;;;;;4952082;29;20205;-67
2023/12/01 03:40:25;;;;;;;17.17;11.20;;;-0.90;99.90;;;;;;4952992;29;20221;-66
2023/12/01 03:42:54;;;;;;;17.33;10.87;;;-0.90;99.90;;;;;;4951006;29;20211;-67
2023/12/01 03:45:23;;;;;;;18.80;11.60;;;-0.80;99.90;;;;;;4953251;29;20202;-66
2023/12/01 03:47:52;;;;;;;14.20;10.03;;;-0.90;99.90;;;;;;4951756;29;20216;-65
2023/12/01 03:50:22;;;;;;;19.23;12.10;;;-1.00;99.90;;;;;;4953194;29;20655;-66
2023/12/01 03:52:51;;;;;;;19.47;12.57;;;-1.10;99.90;;;;;;4953285;29;20687;-68
2023/12/01 03:55:20;;;;;;;19.07;12.00;;;-1.10;99.90;;;;;;4951168;29;20213;-67
2023/12/01 03:57:48;;;;;;;19.43;11.90;;;-0.90;99.90;;;;;;4952718;29;20224;-67
2023/12/01 04:00:18;;;;;;;20.33;12.17;;;-0.80;99.90;;;;;;4952825;29;20769;-67
2023/12/01 04:02:48;;;;;;;22.70;12.53;;;-0.90;99.90;;;;;;4952790;29;20252;-65
2023/12/01 04:05:19;;;;;;;16.87;11.80;;;-0.90;99.90;;;;;;4952605;29;20326;-67
2023/12/01 04:07:51;;;;;;;20.83;11.97;;;-0.90;99.90;;;;;;4951207;29;20208;-67
2023/12/01 04:10:21;;;;;;;21.10;11.43;;;-1.10;99.90;;;;;;4952558;29;20197;-66
2023/12/01 04:12:49;;;;;;;22.37;12.53;;;-1.20;99.90;;;;;;4952564;29;20229;-68
2023/12/01 04:15:19;;;;;;;17.90;11.77;;;-1.50;99.90;;;;;;4952772;29;20219;-68
2023/12/01 04:17:49;;;;;;;22.13;12.17;;;-1.40;99.90;;;;;;4952569;29;20276;-69
2023/12/01 04:20:22;;;;;;;18.43;12.20;;;-1.10;99.90;;;;;;4952448;29;20625;-70
2023/12/01 04:22:54;;;;;;;18.77;11.90;;;-0.90;99.90;;;;;;4952448;29;20775;-69
2023/12/01 04:25:23;;;;;;;20.40;12.00;;;-0.90;99.90;;;;;;4935188;29;20201;-69
2023/12/01 04:27:52;;;;;;;19.70;12.37;;;-0.90;99.90;;;;;;4952157;29;20244;-67
2023/12/01 04:30:22;;;;;;;19.83;12.30;;;-0.80;99.90;;;;;;4952247;29;20205;-66
2023/12/01 04:32:53;;;;;;;18.30;11.50;;;-0.90;99.90;;;;;;4952109;29;20741;-68
2023/12/01 04:35:23;;;;;;;19.13;10.67;;;-1.00;99.90;;;;;;4951772;29;20236;-68
2023/12/01 04:37:53;;;;;;;15.50;10.80;;;-1.00;99.90;;;;;;4952214;29;20774;-68
2023/12/01 04:40:22;;;;;;;18.43;11.40;;;-0.90;99.90;;;;;;4951829;29;20287;-64
2023/12/01 04:42:51;;;;;;;15.40;11.13;;;-1.00;99.90;;;;;;4951913;29;20193;-68
2023/12/01 04:45:21;;;;;;;18.60;11.57;;;-1.10;99.90;;;;;;4952002;29;20204;-66
2023/12/01 04:47:51;;;;;;;21.77;12.13;;;-1.20;99.90;;;;;;4952177;29;20292;-67
2023/12/01 04:50:20;;;;;;;15.07;10.90;;;-1.30;99.90;;;;;;4952000;29;20220;-66
2023/12/01 04:52:52;;;;;;;17.73;11.43;;;-1.40;99.90;;;;;;4951244;28;20193;-67
2023/12/01 04:55:25;;;;;;;19.17;11.30;;;-1.40;99.90;;;;;;4951710;29;20620;-66
2023/12/01 04:57:54;;;;;;;16.83;10.97;;;-1.30;99.90;;;;;;4951327;29;20205;-60
2023/12/01 05:00:25;;;;;;;16.67;11.03;;;-1.20;99.90;;;;;;4951580;29;20252;-65
2023/12/01 05:02:55;;;;;;;16.57;11.37;;;-1.20;99.90;;;;;;4951417;29;20204;-61
2023/12/01 05:05:24;;;;;;;21.27;14.00;;;-1.10;99.90;;;;;;4951503;29;20197;-61
2023/12/01 05:07:57;;;;;;;20.53;13.23;;;-1.10;99.90;;;;;;4951541;29;20211;-67
2023/12/01 05:10:29;;;;;;;19.27;12.90;;;-1.10;99.90;;;;;;4951321;29;20243;-66
2023/12/01 05:12:59;;;;;;;23.67;14.60;;;-1.30;99.90;;;;;;4950855;29;20750;-66
2023/12/01 05:15:30;;;;;;;21.70;13.20;;;-1.20;99.90;;;;;;4951287;29;20236;-67
2023/12/01 05:17:59;;;;;;;18.60;12.40;;;-1.10;99.90;;;;;;4950905;29;20201;-67
2023/12/01 05:20:36;;;;;;;19.37;12.97;;;-1.10;99.90;;;;;;4951286;29;20276;-61
2023/12/01 05:23:09;;;;;;;21.37;12.53;;;-1.00;99.90;;;;;;4951228;29;20683;-66
2023/12/01 05:25:41;;;;;;;23.00;12.80;;;-1.20;99.90;;;;;;4951483;29;20196;-67
2023/12/01 05:28:10;;;;;;;18.53;11.87;;;-1.30;99.90;;;;;;4951093;29;20201;-68
2023/12/01 05:30:41;;;;;;;19.97;12.50;;;-1.30;99.90;;;;;;4951250;29;20225;-68
2023/12/01 05:33:09;;;;;;;19.67;12.10;;;-1.20;99.90;;;;;;4951274;29;20264;-66
2023/12/01 05:35:38;;;;;;;18.63;12.63;;;-1.20;99.90;;;;;;4934090;29;20267;-66
2023/12/01 05:38:06;;;;;;;19.80;12.67;;;-1.20;99.90;;;;;;4951144;29;20196;-68
2023/12/01 05:40:36;;;;;;;16.57;11.33;;;-1.10;99.90;;;;;;4951176;29;20257;-63
2023/12/01 05:43:08;;;;;;;18.83;13.10;;;-1.10;99.90;;;;;;4951482;29;20575;-66
2023/12/01 05:45:36;;;;;;;18.03;11.83;;;-1.20;99.90;;;;;;4951511;29;20664;-65
2023/12/01 05:48:07;;;;;;;24.60;14.63;;;-1.10;99.90;;;;;;4951535;29;20690;-65
2023/12/01 05:50:36;;;;;;;20.80;12.20;;;-1.00;99.90;;;;;;4951132;29;20192;-67
2023/12/01 05:53:06;;;;;;;20.83;12.17;;;-0.90;99.90;;;;;;4951194;29;20275;-66
2023/12/01 05:55:35;;;;;;;24.07;13.17;;;-0.90;99.90;;;;;;4950999;29;20667;-66
2023/12/01 05:58:09;;;;;;;16.40;12.07;;;-0.80;99.90;;;;;;4950830;29;20201;-65
2023/12/01 06:00:38;;;;;;;18.70;12.17;;;-0.90;99.90;;;;;;4950850;29;20237;-63
2023/12/01 06:03:08;;;;;;;20.83;12.17;;;-0.90;99.90;;;;;;4950987;29;20568;-65
2023/12/01 06:05:37;;;;;;;20.90;11.97;;;-0.80;99.90;;;;;;4953486;28;20200;-66
2023/12/01 06:08:08;;;;;;;17.33;12.17;;;-0.80;99.90;;;;;;4954644;29;20304;-65
2023/12/01 06:10:36;;;;;;;18.57;12.90;;;-0.70;99.90;;;;;;4954310;29;20211;-63
2023/12/01 06:13:06;;;;;;;20.43;13.03;;;-0.70;99.90;;;;;;4953168;29;20217;-66
2023/12/01 06:15:35;;;;;;;21.87;13.00;;;-0.60;99.90;;;;;;4954421;29;20201;-66
2023/12/01 06:18:03;;;;;;;21.93;14.30;;;-0.80;99.90;;;;;;4954269;29;20256;-65
2023/12/01 06:20:34;;;;;;;15.83;11.17;;;-0.70;99.90;;;;;;4954166;29;20216;-67
2023/12/01 06:23:06;;;;;;;16.83;11.70;;;-0.70;99.90;;;;;;4954290;29;20636;-63
2023/12/01 06:25:37;;;;;;;20.67;11.37;;;-0.90;99.90;;;;;;4954157;29;20344;-63
2023/12/01 06:28:08;;;;;;;17.23;11.47;;;-1.00;99.90;;;;;;4953878;29;20237;-66
2023/12/01 06:30:37;;;;;;;17.90;11.27;;;-0.90;99.90;;;;;;4954138;29;20287;-67
2023/12/01 06:33:07;;;;;;;20.27;11.63;;;-0.80;99.90;;;;;;4954059;29;20208;-62
2023/12/01 06:35:36;;;;;;;19.07;11.57;;;-0.70;99.90;;;;;;4953752;28;20272;-64
2023/12/01 06:38:06;;;;;;;14.50;10.47;;;-0.60;99.90;;;;;;4953937;29;20201;-64
2023/12/01 06:40:35;;;;;;;22.33;12.50;;;-0.70;99.90;;;;;;4953584;29;20196;-64
2023/12/01 06:43:09;;;;;;;20.43;12.30;;;-0.70;99.90;;;;;;4953707;29;20283;-65
2023/12/01 06:45:39;;;;;;;19.60;11.77;;;-0.80;99.90;;;;;;4953847;29;20943;-67
2023/12/01 06:48:08;;;;;;;20.07;11.97;;;-0.80;99.90;;;;;;4953744;29;20223;-66
2023/12/01 06:50:37;;;;;;;25.00;14.13;;;-0.90;99.90;;;;;;4953670;29;20197;-65
2023/12/01 06:53:06;;;;;;;25.57;13.93;;;-1.00;99.90;;;;;;4953522;29;20189;-66
2023/12/01 06:55:36;;;;;;;25.40;13.17;;;-1.10;99.90;;;;;;4949444;29;20195;-63
2023/12/01 06:58:04;;;;;;;27.03;14.57;;;-1.00;99.90;;;;;;4934672;29;20218;-62
2023/12/01 07:00:36;;;;;;;25.00;14.07;;;-1.10;99.90;;;;;;4934844;29;20228;-64
2023/12/01 07:03:07;;;;;;;25.27;14.07;;;-1.10;99.90;;;;;;4933988;29;20202;-66
2023/12/01 07:05:38;;;;;;;26.20;14.13;;;-1.00;99.90;;;;;;4953826;29;20244;-64
2023/12/01 07:08:11;;;;;;;24.80;14.43;;;-1.00;99.90;;;;;;4954147;29;20678;-66
2023/12/01 07:10:40;;;;;;;22.97;13.17;;;-0.90;99.90;;;;;;4953262;29;20236;-66
2023/12/01 07:13:09;;;;;;;22.10;14.17;;;-0.80;99.90;;;;;;4953847;29;20197;-67
2023/12/01 07:15:37;;;;;;;27.40;15.27;;;-0.60;99.90;;;;;;4953309;28;20222;-65
2023/12/01 07:18:09;;;;;;;29.50;16.43;;;-0.40;99.90;;;;;;4953323;29;20667;-66
2023/12/01 07:20:37;;;;;;;27.53;14.50;;;-0.30;99.90;;;;;;4953813;29;20190;-67
2023/12/01 07:23:06;;;;;;;23.43;14.53;;;-0.20;99.90;;;;;;4953659;29;20694;-65
2023/12/01 07:25:35;;;;;;;29.73;15.43;;;-0.20;99.90;;;;;;4953282;29;20232;-67
2023/12/01 07:28:05;;;;;;;26.57;16.67;;;-0.20;99.90;;;;;;4953145;29;20197;-68
2023/12/01 07:30:33;;;;;;;25.03;15.57;;;-0.10;99.90;;;;;;4953473;29;20734;-64
2023/12/01 07:33:03;;;;;;;25.37;15.77;;;-0.20;99.90;;;;;;4948659;29;20205;-61
2023/12/01 07:35:34;;;;;;;25.97;14.53;;;-0.40;99.90;;;;;;4933530;29;20230;-66
2023/12/01 07:38:04;;;;;;;21.60;13.10;;;-0.40;99.90;;;;;;4934156;29;20201;-65
2023/12/01 08:09:38;;;;;;;25.00;14.67;;;-0.60;99.90;;;;;;4884416;23;20239;-65
2023/12/01 08:12:07;;;;;;;26.77;15.00;;;-0.50;99.90;;;;;;4896223;29;20752;-66
2023/12/01 08:14:35;;;;;;;30.90;17.07;;;-0.30;99.90;;;;;;4894786;29;20206;-67
2023/12/01 08:17:04;;;;;;;31.73;17.30;;;-0.10;99.90;;;;;;4895963;29;20215;-69
2023/12/01 08:19:33;;;;;;;28.07;16.83;;;-0.10;99.90;;;;;;4896292;29;20252;-67
2023/12/01 08:22:01;;;;;;;33.13;18.93;;;0.00;99.90;;;;;;4879024;29;20241;-68
2023/12/01 08:24:31;;;;;;;27.80;15.33;;;0.10;99.90;;;;;;4896244;29;20203;-66
2023/12/01 08:27:01;;;;;;;24.63;16.47;;;0.20;99.90;;;;;;4895908;29;20614;-64
2023/12/01 08:29:30;;;;;;;31.57;19.43;;;0.20;99.90;;;;;;4896030;29;20205;-68
2023/12/01 08:31:57;;;;;;;30.33;16.40;;;0.30;99.90;;;;;;4895878;29;20207;-67
2023/12/01 08:34:26;;;;;;;27.87;15.97;;;0.30;99.90;;;;;;4895733;29;20223;-65
2023/12/01 08:36:54;;;;;;;27.00;14.97;;;0.30;99.90;;;;;;4895280;29;20695;-67
2023/12/01 08:39:23;;;;;;;23.20;15.80;;;0.40;99.90;;;;;;4895237;29;20199;-66
2023/12/01 08:41:53;;;;;;;25.90;17.20;;;0.30;99.90;;;;;;4895148;29;20222;-67
2023/12/01 08:44:23;;;;;;;27.83;16.73;;;0.40;99.90;;;;;;4895487;29;20207;-66
2023/12/01 08:46:51;;;;;;;26.63;17.53;;;0.50;99.90;;;;;;4895781;29;20207;-67
2023/12/01 08:49:19;;;;;;;22.17;13.43;;;0.50;99.90;;;;;;4895476;29;20693;-67
2023/12/01 08:51:47;;;;;;;24.33;14.77;;;0.70;99.90;;;;;;4893187;29;20207;-66
2023/12/01 08:54:16;;;;;;;22.20;14.10;;;1.00;99.90;;;;;;4895495;29;20202;-66
2023/12/01 08:56:48;;;;;;;23.00;14.03;;;0.90;99.90;;;;;;4895306;29;20195;-68
2023/12/01 08:59:17;;;;;;;20.63;14.10;;;1.10;99.90;;;;;;4895549;29;20204;-66
2023/12/01 09:01:47;;;;;;;22.10;15.27;;;1.00;99.90;;;;;;4895124;29;20238;-67
2023/12/01 09:04:16;;;;;;;22.27;14.93;;;0.90;99.90;;;;;;4895519;29;20209;-68
2023/12/01 09:06:44;;;;;;;18.40;12.40;;;0.70;99.90;;;;;;4895260;29;20298;-65
2023/12/01 09:09:13;;;;;;;22.80;13.63;;;0.80;99.90;;;;;;4895027;29;20278;-67
2023/12/01 09:11:41;;;;;;;18.60;12.87;;;0.90;99.90;;;;;;4878224;29;20203;-66
2023/12/01 09:14:10;;;;;;;19.43;13.17;;;1.00;99.90;;;;;;4895245;29;20683;-61
2023/12/01 09:16:38;;;;;;;17.30;11.90;;;1.00;99.90;;;;;;4895194;29;20194;-65
2023/12/01 09:19:08;;;;;;;18.37;12.00;;;1.00;99.90;;;;;;4895116;29;20203;-67
2023/12/01 09:21:36;;;;;;;19.53;11.17;;;1.00;99.90;;;;;;4894240;29;20575;-67
2023/12/01 09:24:05;;;;;;;17.07;11.00;;;0.90;99.90;;;;;;4894793;29;20762;-66
2023/12/01 09:26:33;;;;;;;17.43;11.37;;;0.90;99.90;;;;;;4894607;29;20203;-62
2023/12/01 09:29:02;;;;;;;15.60;11.23;;;1.10;99.90;;;;;;4894756;29;20665;-67
2023/12/01 09:31:30;;;;;;;13.50;9.90;;;1.20;99.90;;;;;;4894843;29;20262;-65
2023/12/01 09:33:58;;;;;;;15.73;10.57;;;1.40;99.90;;;;;;4892830;29;20211;-63
2023/12/01 09:36:30;;;;;;;16.00;11.13;;;1.40;99.90;;;;;;4894492;29;20263;-68
2023/12/01 09:38:59;;;;;;;15.50;10.50;;;1.60;99.90;;;;;;4894208;29;20205;-65
2023/12/01 09:41:29;;;;;;;16.03;10.93;;;1.60;99.90;;;;;;4898343;29;20214;-67
2023/12/01 09:43:57;;;;;;;15.83;10.00;;;1.90;99.90;;;;;;4898545;29;20589;-67
2023/12/01 09:46:34;;;;;;;14.87;10.47;;;2.00;99.90;;;;;;4898416;29;20689;-66
2023/12/01 09:49:04;;;;;;;19.40;10.80;;;2.10;99.90;;;;;;4898226;29;20200;-67
2023/12/01 09:51:36;;;;;;;16.50;10.93;;;2.20;99.90;;;;;;4898360;29;20210;-66
2023/12/01 09:54:05;;;;;;;15.23;10.37;;;2.10;99.90;;;;;;4898189;29;20812;-68
2023/12/01 09:56:33;;;;;;;14.83;9.67;;;2.10;99.90;;;;;;4898332;29;20719;-68
2023/12/01 09:59:02;;;;;;;14.10;9.60;;;2.10;99.90;;;;;;4896246;29;20211;-67
2023/12/01 10:01:31;;;;;;;17.10;11.53;;;2.10;99.90;;;;;;4897988;29;20212;-67
2023/12/01 10:03:59;;;;;;;16.93;11.27;;;1.80;99.90;;;;;;4882045;29;20765;-67
2023/12/01 10:06:27;;;;;;;17.17;11.33;;;1.80;99.90;;;;;;4879321;29;20290;-65
2023/12/01 10:08:57;;;;;;;14.13;10.07;;;1.80;99.90;;;;;;4878782;29;20347;-68
2023/12/01 10:11:26;;;;;;;15.17;10.83;;;1.90;99.90;;;;;;4894526;29;20302;-69
2023/12/01 10:13:55;;;;;;;15.87;10.70;;;2.00;99.90;;;;;;4897899;29;20207;-68
2023/12/01 10:16:24;;;;;;;15.77;9.80;;;2.20;99.90;;;;;;4895875;29;20203;-61
2023/12/01 10:19:00;;;;;;;15.70;9.97;;;2.40;99.90;;;;;;4897739;29;20251;-60
2023/12/01 10:21:45;;;;;;;16.10;10.23;;;2.60;99.90;;;;;;4897900;29;20300;-60
2023/12/01 10:24:20;;;;;;;18.20;10.10;;;2.50;99.90;;;;;;4805619;29;20676;-63
2023/12/01 10:26:50;;;;;;;14.77;9.33;;;2.70;99.90;;;;;;4821300;29;20262;-67
2023/12/01 10:29:29;;;;;;;16.43;10.03;;;3.00;99.90;;;;;;4821202;29;20208;-63
2023/12/01 10:31:59;;;;;;;14.70;10.37;;;2.70;99.90;;;;;;4821230;29;20222;-61
2023/12/01 10:34:27;;;;;;;14.27;9.77;;;2.50;99.90;;;;;;4821212;29;20344;-64
2023/12/01 10:36:56;;;;;;;14.13;10.97;;;2.50;99.90;;;;;;4821233;29;20271;-66
2023/12/01 10:39:27;;;;;;;15.03;12.07;;;2.50;99.90;;;;;;4820602;29;20221;-65
2023/12/01 10:41:56;;;;;;;14.97;9.87;;;2.60;99.90;;;;;;4823600;29;20299;-63
2023/12/01 10:44:29;;;;;;;16.93;10.63;;;2.60;99.90;;;;;;4878825;29;20251;-66
2023/12/01 10:46:57;;;;;;;18.87;11.47;;;2.60;99.90;;;;;;4878598;29;20252;-60
2023/12/01 10:49:25;;;;;;;17.03;11.87;;;2.60;99.90;;;;;;4878936;29;20212;-64
2023/12/01 10:51:56;;;;;;;13.97;9.50;;;2.70;99.90;;;;;;4878541;29;20261;-60
2023/12/01 10:54:28;;;;;;;15.33;9.53;;;2.80;99.90;;;;;;4878417;29;20294;-63
2023/12/01 10:57:05;;;;;;;16.10;9.33;;;2.60;99.90;;;;;;4877954;29;20569;-67
2023/12/01 10:59:44;;;;;;;16.10;9.53;;;2.80;99.90;;;;;;4878790;29;20293;-62
2023/12/01 11:02:15;;;;;;;16.10;9.70;;;3.20;99.90;;;;;;4878380;29;20249;-61
2023/12/01 11:04:45;;;;;;;14.80;11.10;;;3.40;99.90;;;;;;4878274;29;20259;-67
2023/12/01 11:07:27;;;;;;;14.70;9.83;;;3.20;99.90;;;;;;4877962;29;20204;-62
2023/12/01 11:10:07;;;;;;;15.97;10.50;;;3.20;99.90;;;;;;4881361;29;20579;-65
2023/12/01 11:12:48;;;;;;;15.90;10.53;;;3.20;99.90;;;;;;4894731;29;20289;-63
2023/12/01 11:15:20;;;;;;;14.77;10.70;;;3.10;99.90;;;;;;4878119;29;20249;-63
2023/12/01 11:17:50;;;;;;;16.33;11.07;;;2.80;99.90;;;;;;4877994;29;20214;-69
2023/12/01 11:20:36;;;;;;;15.03;10.10;;;2.60;99.90;;;;;;4878023;29;20206;-68
2023/12/01 11:23:06;;;;;;;13.20;8.90;;;2.50;99.90;;;;;;4877894;29;20221;-65
2023/12/01 11:25:43;;;;;;;19.90;11.70;;;2.40;99.90;;;;;;4877937;29;20220;-67
2023/12/01 11:28:20;;;;;;;15.03;11.03;;;2.40;99.90;;;;;;4877932;29;20205;-67
2023/12/01 11:31:08;;;;;;;15.50;9.70;;;2.40;99.90;;;;;;4877850;29;20192;-65
2023/12/01 11:33:41;;;;;;;18.73;10.53;;;2.60;99.90;;;;;;4878006;29;20197;-70
2023/12/01 11:36:37;;;;;;;16.87;11.43;;;2.80;99.90;;;;;;4877539;29;20197;-66
2023/12/01 11:39:23;;;;;;;14.40;10.00;;;3.10;99.90;;;;;;4877259;29;20218;-68
2023/12/01 11:42:16;;;;;;;15.93;9.33;;;3.20;99.90;;;;;;4888985;29;20560;-71
2023/12/01 11:44:51;;;;;;;16.30;10.10;;;3.30;99.90;;;;;;4893263;29;20229;-69
2023/12/01 11:47:20;;;;;;;14.90;10.13;;;3.40;99.90;;;;;;4896042;29;20200;-69
2023/12/01 11:49:48;;;;;;;15.23;10.10;;;3.40;99.90;;;;;;4896150;29;20679;-69
2023/12/01 11:52:19;;;;;;;12.70;9.50;;;3.20;99.90;;;;;;4895994;29;20206;-66
2023/12/01 11:54:49;;;;;;;12.63;9.40;;;3.10;99.90;;;;;;4880209;29;20217;-70
2023/12/01 11:57:20;;;;;;;17.10;10.43;;;2.90;99.90;;;;;;4877033;29;20206;-68
2023/12/01 11:59:49;;;;;;;15.73;9.90;;;2.80;99.90;;;;;;4877137;29;20200;-70
2023/12/01 12:02:28;;;;;;;11.83;9.30;;;2.70;99.90;;;;;;4876747;29;20738;-70
2023/12/01 12:05:00;;;;;;;41.77;22.77;;;2.60;99.90;;;;;;4877011;29;20233;-69
2023/12/01 12:07:29;;;;;;;15.10;10.37;;;2.70;99.90;;;;;;4876983;29;20215;-68
2023/12/01 12:09:57;;;;;;;14.07;9.70;;;2.50;99.90;;;;;;4880060;29;20200;-68
2023/12/01 12:12:29;;;;;;;22.13;13.73;;;2.40;99.90;;;;;;4895573;29;20211;-68
2023/12/01 12:15:06;;;;;;;15.27;10.27;;;2.40;99.90;;;;;;4895636;29;20203;-69
2023/12/01 12:17:34;;;;;;;14.53;9.47;;;2.30;99.90;;;;;;4895496;29;20734;-68
2023/12/01 12:20:05;;;;;;;13.00;9.73;;;2.20;99.90;;;;;;4893453;29;20208;-69
2023/12/01 12:22:37;;;;;;;17.27;10.20;;;2.10;99.90;;;;;;4895147;29;20664;-69
2023/12/01 12:25:10;;;;;;;18.27;9.73;;;2.00;99.90;;;;;;4895153;29;20259;-68
2023/12/01 12:27:40;;;;;;;16.50;10.77;;;2.20;99.90;;;;;;4895307;29;20746;-68
2023/12/01 12:30:10;;;;;;;13.03;10.33;;;2.20;99.90;;;;;;4895371;29;20616;-70
2023/12/01 12:32:38;;;;;;;16.77;10.90;;;2.30;99.90;;;;;;4895368;29;20575;-69
2023/12/01 12:35:07;;;;;;;15.37;10.33;;;2.20;99.90;;;;;;4895010;29;20215;-66
2023/12/01 12:37:36;;;;;;;14.53;9.97;;;2.20;99.90;;;;;;4895137;29;20242;-68
2023/12/01 12:40:08;;;;;;;13.80;10.20;;;2.30;99.90;;;;;;4894581;29;20372;-62
2023/12/01 12:42:41;;;;;;;12.87;9.97;;;2.30;99.90;;;;;;4895262;29;20282;-69
2023/12/01 12:45:11;;;;;;;15.20;9.00;;;2.30;99.90;;;;;;4894950;29;20224;-68
2023/12/01 12:47:40;;;;;;;15.63;9.23;;;2.40;99.90;;;;;;4894875;29;20586;-69
2023/12/01 12:50:11;;;;;;;12.70;10.30;;;2.30;99.90;;;;;;4894413;29;20213;-69
2023/12/01 12:52:39;;;;;;;15.63;10.37;;;2.40;99.90;;;;;;4895008;29;20215;-68
2023/12/01 12:55:09;;;;;;;14.43;10.33;;;2.40;99.90;;;;;;4892458;29;20208;-70
2023/12/01 12:57:37;;;;;;;15.07;10.20;;;2.30;99.90;;;;;;4894716;29;20243;-67
2023/12/01 13:00:08;;;;;;;12.70;10.53;;;2.30;99.90;;;;;;4894563;29;20207;-66
2023/12/01 13:02:38;;;;;;;14.70;10.50;;;2.30;99.90;;;;;;4894620;29;20204;-67
2023/12/01 13:05:07;;;;;;;15.10;10.13;;;2.40;99.90;;;;;;4894568;29;20302;-71
2023/12/01 13:07:35;;;;;;;16.30;11.27;;;2.40;99.90;;;;;;4894447;29;20204;-68
2023/12/01 13:10:04;;;;;;;14.53;9.97;;;2.20;99.90;;;;;;4882408;29;20207;-69
2023/12/01 13:12:32;;;;;;;24.87;13.47;;;2.20;99.90;;;;;;4894327;29;20271;-68
2023/12/01 13:15:02;;;;;;;22.30;13.20;;;2.20;99.90;;;;;;4893761;29;20780;-68
2023/12/01 13:17:31;;;;;;;18.10;11.90;;;2.30;99.90;;;;;;4894434;29;20212;-68